sensor_id;sensor_type;location;lat;lon;timestamp;pressure;altitude;pressure_sealevel;temperature;humidity
11053;BME280;55230;42.602;23.470;2023-02-22T00:00:56;93492.66;;;8.04;53.98
11053;BME280;55230;42.602;23.470;2023-02-22T00:03:27;93437.72;;;7.42;55.07
11053;BME280;55230;42.602;23.470;2023-02-22T00:05:58;93494.53;;;7.78;54.74
11053;BME280;55230;42.602;23.470;2023-02-22T00:08:29;93500.69;;;7.79;54.72
11053;BME280;55230;42.602;23.470;2023-02-22T00:10:57;93495.09;;;7.73;55.77
11053;BME280;55230;42.602;23.470;2023-02-22T00:13:24;93420.53;;;7.15;54.29
11053;BME280;55230;42.602;23.470;2023-02-22T00:15:53;93490.50;;;7.86;53.88
11053;BME280;55230;42.602;23.470;2023-02-22T00:18:20;93200.34;;;5.83;53.60
11053;BME280;55230;42.602;23.470;2023-02-22T00:20:47;93391.06;;;7.27;53.19
11053;BME280;55230;42.602;23.470;2023-02-22T00:23:16;93492.31;;;8.02;52.30
11053;BME280;55230;42.602;23.470;2023-02-22T00:25:46;93408.97;;;7.43;52.38
11053;BME280;55230;42.602;23.470;2023-02-22T00:28:13;93492.53;;;8.07;52.95
11053;BME280;55230;42.602;23.470;2023-02-22T00:30:41;93525.72;;;8.13;51.59
11053;BME280;55230;42.602;23.470;2023-02-22T00:33:09;93488.13;;;8.13;52.61
11053;BME280;55230;42.602;23.470;2023-02-22T00:35:36;93393.31;;;7.41;52.94
11053;BME280;55230;42.602;23.470;2023-02-22T00:38:03;93485.00;;;8.02;52.36
11053;BME280;55230;42.602;23.470;2023-02-22T00:40:32;93475.22;;;8.08;52.16
11053;BME280;55230;42.602;23.470;2023-02-22T00:43:03;93471.25;;;8.13;51.95
11053;BME280;55230;42.602;23.470;2023-02-22T00:45:32;93472.00;;;8.13;51.75
11053;BME280;55230;42.602;23.470;2023-02-22T00:47:59;93256.53;;;6.66;51.84
11053;BME280;55230;42.602;23.470;2023-02-22T00:50:28;93466.75;;;8.10;52.13
11053;BME280;55230;42.602;23.470;2023-02-22T00:52:56;93321.00;;;7.00;52.66
11053;BME280;55230;42.602;23.470;2023-02-22T00:55:25;93455.16;;;7.88;52.35
11053;BME280;55230;42.602;23.470;2023-02-22T00:57:52;93485.44;;;8.01;51.91
11053;BME280;55230;42.602;23.470;2023-02-22T01:02:50;93468.47;;;8.04;52.25
11053;BME280;55230;42.602;23.470;2023-02-22T01:05:18;93381.63;;;7.60;51.94
11053;BME280;55230;42.602;23.470;2023-02-22T01:07:47;93448.19;;;7.78;51.16
11053;BME280;55230;42.602;23.470;2023-02-22T01:10:16;93372.59;;;7.54;51.27
11053;BME280;55230;42.602;23.470;2023-02-22T01:12:43;93447.41;;;8.15;51.16
11053;BME280;55230;42.602;23.470;2023-02-22T01:15:11;93440.22;;;8.12;51.31
11053;BME280;55230;42.602;23.470;2023-02-22T01:17:40;93459.13;;;8.08;51.06
11053;BME280;55230;42.602;23.470;2023-02-22T01:20:09;93437.97;;;8.10;51.46
11053;BME280;55230;42.602;23.470;2023-02-22T01:22:38;93400.81;;;7.84;51.27
11053;BME280;55230;42.602;23.470;2023-02-22T01:25:05;93324.75;;;7.28;51.86
11053;BME280;55230;42.602;23.470;2023-02-22T01:27:32;93360.28;;;7.57;52.12
11053;BME280;55230;42.602;23.470;2023-02-22T01:29:59;93431.63;;;8.04;51.97
11053;BME280;55230;42.602;23.470;2023-02-22T01:32:26;93380.53;;;7.70;51.45
11053;BME280;55230;42.602;23.470;2023-02-22T01:34:54;93403.41;;;7.75;52.35
11053;BME280;55230;42.602;23.470;2023-02-22T01:37:21;93432.38;;;8.05;52.14
11053;BME280;55230;42.602;23.470;2023-02-22T01:39:48;92846.16;;;3.98;52.65
11053;BME280;55230;42.602;23.470;2023-02-22T01:42:14;93432.50;;;7.89;52.56
11053;BME280;55230;42.602;23.470;2023-02-22T01:44:42;93407.69;;;7.60;52.68
11053;BME280;55230;42.602;23.470;2023-02-22T01:47:08;93042.22;;;5.12;53.09
11053;BME280;55230;42.602;23.470;2023-02-22T01:49:38;93429.47;;;7.87;53.59
11053;BME280;55230;42.602;23.470;2023-02-22T01:52:10;93388.91;;;7.47;54.03
11053;BME280;55230;42.602;23.470;2023-02-22T01:54:41;93144.41;;;5.60;54.74
11053;BME280;55230;42.602;23.470;2023-02-22T01:57:14;93433.78;;;7.72;54.94
11053;BME280;55230;42.602;23.470;2023-02-22T01:59:46;93428.41;;;7.59;55.51
11053;BME280;55230;42.602;23.470;2023-02-22T02:02:14;93433.16;;;7.55;55.35
11053;BME280;55230;42.602;23.470;2023-02-22T02:04:41;93358.75;;;7.06;54.50
11053;BME280;55230;42.602;23.470;2023-02-22T02:07:12;93439.47;;;7.74;54.34
11053;BME280;55230;42.602;23.470;2023-02-22T02:09:46;93429.72;;;7.80;53.54
11053;BME280;55230;42.602;23.470;2023-02-22T02:12:15;93423.06;;;7.84;54.32
11053;BME280;55230;42.602;23.470;2023-02-22T02:14:43;93432.09;;;7.78;54.82
11053;BME280;55230;42.602;23.470;2023-02-22T02:17:12;93435.09;;;7.67;55.16
11053;BME280;55230;42.602;23.470;2023-02-22T02:19:44;93435.94;;;7.64;55.11
11053;BME280;55230;42.602;23.470;2023-02-22T02:22:26;93430.34;;;7.46;55.31
11053;BME280;55230;42.602;23.470;2023-02-22T02:28:24;93385.69;;;7.27;55.29
11053;BME280;55230;42.602;23.470;2023-02-22T02:31:31;93428.94;;;7.54;54.57
11053;BME280;55230;42.602;23.470;2023-02-22T02:34:04;93215.25;;;5.97;54.71
11053;BME280;55230;42.602;23.470;2023-02-22T02:36:42;93157.88;;;5.69;54.84
11053;BME280;55230;42.602;23.470;2023-02-22T02:39:19;93443.88;;;7.55;55.81
11053;BME280;55230;42.602;23.470;2023-02-22T02:41:50;93437.00;;;7.54;56.17
11053;BME280;55230;42.602;23.470;2023-02-22T02:44:21;93444.09;;;7.48;57.23
11053;BME280;55230;42.602;23.470;2023-02-22T02:46:53;93356.47;;;6.50;57.80
11053;BME280;55230;42.602;23.470;2023-02-22T02:49:26;93433.31;;;7.23;58.18
11053;BME280;55230;42.602;23.470;2023-02-22T02:51:56;93281.16;;;5.75;59.41
11053;BME280;55230;42.602;23.470;2023-02-22T02:54:24;93405.56;;;6.60;59.80
11053;BME280;55230;42.602;23.470;2023-02-22T02:56:51;93435.78;;;6.89;59.66
11053;BME280;55230;42.602;23.470;2023-02-22T02:59:24;93434.22;;;6.91;60.41
11053;BME280;55230;42.602;23.470;2023-02-22T03:02:00;93443.50;;;6.87;60.83
11053;BME280;55230;42.602;23.470;2023-02-22T03:04:39;93440.03;;;6.74;61.23
11053;BME280;55230;42.602;23.470;2023-02-22T03:07:32;93440.38;;;6.76;60.67
11053;BME280;55230;42.602;23.470;2023-02-22T03:10:19;93421.03;;;6.40;60.92
11053;BME280;55230;42.602;23.470;2023-02-22T03:12:58;93408.09;;;6.51;60.62
11053;BME280;55230;42.602;23.470;2023-02-22T03:15:33;93256.38;;;5.58;59.72
11053;BME280;55230;42.602;23.470;2023-02-22T03:18:06;93411.13;;;6.37;59.68
11053;BME280;55230;42.602;23.470;2023-02-22T03:20:42;93369.63;;;6.45;59.22
11053;BME280;55230;42.602;23.470;2023-02-22T03:23:14;93287.28;;;5.92;59.89
11053;BME280;55230;42.602;23.470;2023-02-22T03:25:47;93433.75;;;6.36;60.67
11053;BME280;55230;42.602;23.470;2023-02-22T03:28:19;93460.06;;;6.98;60.60
11053;BME280;55230;42.602;23.470;2023-02-22T03:30:53;93458.56;;;6.97;60.34
11053;BME280;55230;42.602;23.470;2023-02-22T03:33:24;93420.28;;;6.68;60.89
11053;BME280;55230;42.602;23.470;2023-02-22T03:36:02;93458.75;;;6.90;61.33
11053;BME280;55230;42.602;23.470;2023-02-22T03:38:32;93423.34;;;6.54;61.30
11053;BME280;55230;42.602;23.470;2023-02-22T03:41:02;93382.03;;;6.39;60.74
11053;BME280;55230;42.602;23.470;2023-02-22T03:43:34;93460.41;;;7.00;60.12
11053;BME280;55230;42.602;23.470;2023-02-22T03:46:03;93374.53;;;6.62;58.89
11053;BME280;55230;42.602;23.470;2023-02-22T03:48:37;93408.53;;;6.78;59.29
11053;BME280;55230;42.602;23.470;2023-02-22T03:51:06;93434.81;;;6.83;59.32
11053;BME280;55230;42.602;23.470;2023-02-22T03:53:33;93456.38;;;7.21;59.04
11053;BME280;55230;42.602;23.470;2023-02-22T03:56:03;93455.09;;;7.25;58.31
11053;BME280;55230;42.602;23.470;2023-02-22T03:58:33;93409.56;;;6.96;58.60
11053;BME280;55230;42.602;23.470;2023-02-22T04:01:02;93454.13;;;7.32;59.56
11053;BME280;55230;42.602;23.470;2023-02-22T04:03:29;93236.97;;;5.87;59.58
11053;BME280;55230;42.602;23.470;2023-02-22T04:05:56;93155.50;;;5.30;59.20
11053;BME280;55230;42.602;23.470;2023-02-22T04:08:24;93448.03;;;7.31;59.77
11053;BME280;55230;42.602;23.470;2023-02-22T04:10:53;93460.69;;;7.31;58.91
11053;BME280;55230;42.602;23.470;2023-02-22T04:13:20;93445.47;;;7.40;59.24
11053;BME280;55230;42.602;23.470;2023-02-22T04:15:47;93329.72;;;6.63;59.46
11053;BME280;55230;42.602;23.470;2023-02-22T04:18:14;93446.31;;;7.37;59.66
11053;BME280;55230;42.602;23.470;2023-02-22T04:20:40;93375.41;;;6.72;59.93
11053;BME280;55230;42.602;23.470;2023-02-22T04:23:09;93253.91;;;5.96;60.14
11053;BME280;55230;42.602;23.470;2023-02-22T04:25:37;93486.44;;;7.28;60.28
11053;BME280;55230;42.602;23.470;2023-02-22T04:28:04;93397.13;;;6.90;60.64
11053;BME280;55230;42.602;23.470;2023-02-22T04:30:31;93448.66;;;7.23;60.98
11053;BME280;55230;42.602;23.470;2023-02-22T04:32:57;93347.72;;;6.34;61.44
11053;BME280;55230;42.602;23.470;2023-02-22T04:35:24;93452.72;;;6.86;61.84
11053;BME280;55230;42.602;23.470;2023-02-22T04:37:51;93230.84;;;4.93;62.66
11053;BME280;55230;42.602;23.470;2023-02-22T04:40:20;93432.13;;;6.54;63.44
11053;BME280;55230;42.602;23.470;2023-02-22T04:42:49;93392.91;;;6.32;64.16
11053;BME280;55230;42.602;23.470;2023-02-22T04:45:15;93474.25;;;6.54;65.29
11053;BME280;55230;42.602;23.470;2023-02-22T04:47:42;93453.00;;;6.47;65.33
11053;BME280;55230;42.602;23.470;2023-02-22T04:50:10;93455.84;;;6.40;65.58
11053;BME280;55230;42.602;23.470;2023-02-22T04:52:37;93141.00;;;4.19;65.63
11053;BME280;55230;42.602;23.470;2023-02-22T04:55:05;93451.50;;;6.14;65.62
11053;BME280;55230;42.602;23.470;2023-02-22T04:57:31;93456.38;;;6.19;66.52
11053;BME280;55230;42.602;23.470;2023-02-22T05:00:00;93445.31;;;6.17;66.87
11053;BME280;55230;42.602;23.470;2023-02-22T05:02:26;93379.06;;;5.72;65.94
11053;BME280;55230;42.602;23.470;2023-02-22T05:04:53;93445.56;;;6.38;65.67
11053;BME280;55230;42.602;23.470;2023-02-22T05:07:20;93454.59;;;6.28;65.46
11053;BME280;55230;42.602;23.470;2023-02-22T05:09:47;93398.28;;;6.32;64.68
11053;BME280;55230;42.602;23.470;2023-02-22T05:12:13;93445.41;;;6.74;63.93
11053;BME280;55230;42.602;23.470;2023-02-22T05:14:40;93451.34;;;6.81;63.84
11053;BME280;55230;42.602;23.470;2023-02-22T05:17:10;93398.78;;;6.27;64.45
11053;BME280;55230;42.602;23.470;2023-02-22T05:19:37;93449.69;;;6.11;66.09
11053;BME280;55230;42.602;23.470;2023-02-22T05:22:03;93399.97;;;5.77;66.13
11053;BME280;55230;42.602;23.470;2023-02-22T05:24:31;93464.69;;;5.72;67.91
11053;BME280;55230;42.602;23.470;2023-02-22T05:26:58;93471.09;;;5.75;67.85
11053;BME280;55230;42.602;23.470;2023-02-22T05:29:24;93412.03;;;4.98;69.79
11053;BME280;55230;42.602;23.470;2023-02-22T05:31:51;93443.19;;;5.05;69.97
11053;BME280;55230;42.602;23.470;2023-02-22T05:34:19;93476.34;;;5.27;69.76
11053;BME280;55230;42.602;23.470;2023-02-22T05:36:46;93415.81;;;4.81;71.20
11053;BME280;55230;42.602;23.470;2023-02-22T05:39:13;93392.88;;;4.64;72.19
11053;BME280;55230;42.602;23.470;2023-02-22T05:41:39;93271.13;;;3.92;71.84
11053;BME280;55230;42.602;23.470;2023-02-22T05:44:06;93479.06;;;5.43;72.18
11053;BME280;55230;42.602;23.470;2023-02-22T05:46:33;93471.63;;;5.34;73.12
11053;BME280;55230;42.602;23.470;2023-02-22T05:49:00;93480.50;;;5.47;74.80
11053;BME280;55230;42.602;23.470;2023-02-22T05:51:28;93439.28;;;5.09;75.15
11053;BME280;55230;42.602;23.470;2023-02-22T05:53:54;93389.00;;;5.40;74.48
11053;BME280;55230;42.602;23.470;2023-02-22T05:56:25;93429.94;;;6.05;73.81
11053;BME280;55230;42.602;23.470;2023-02-22T05:58:52;93321.25;;;5.62;71.93
11053;BME280;55230;42.602;23.470;2023-02-22T06:01:19;93517.44;;;7.29;69.35
11053;BME280;55230;42.602;23.470;2023-02-22T06:03:46;93499.91;;;7.78;67.49
11053;BME280;55230;42.602;23.470;2023-02-22T06:06:13;93499.84;;;8.19;64.92
11053;BME280;55230;42.602;23.470;2023-02-22T06:08:41;93494.03;;;8.46;63.65
11053;BME280;55230;42.602;23.470;2023-02-22T06:11:08;93499.25;;;8.75;63.25
11053;BME280;55230;42.602;23.470;2023-02-22T06:13:35;93505.53;;;9.15;61.45
11053;BME280;55230;42.602;23.470;2023-02-22T06:16:03;93463.63;;;9.05;61.24
11053;BME280;55230;42.602;23.470;2023-02-22T06:18:30;93496.88;;;9.54;58.34
11053;BME280;55230;42.602;23.470;2023-02-22T06:20:57;93525.53;;;10.00;57.04
11053;BME280;55230;42.602;23.470;2023-02-22T06:23:25;93511.00;;;10.19;56.10
11053;BME280;55230;42.602;23.470;2023-02-22T06:25:53;93458.56;;;10.11;54.39
11053;BME280;55230;42.602;23.470;2023-02-22T06:28:20;93447.72;;;10.02;53.95
11053;BME280;55230;42.602;23.470;2023-02-22T06:30:48;93504.38;;;10.60;53.42
11053;BME280;55230;42.602;23.470;2023-02-22T06:33:14;93374.38;;;9.98;53.03
11053;BME280;55230;42.602;23.470;2023-02-22T06:35:41;93496.13;;;10.64;52.14
11053;BME280;55230;42.602;23.470;2023-02-22T06:38:08;93503.13;;;10.43;52.76
11053;BME280;55230;42.602;23.470;2023-02-22T06:40:34;93454.91;;;9.44;56.11
11053;BME280;55230;42.602;23.470;2023-02-22T06:43:03;93446.19;;;8.54;59.61
11053;BME280;55230;42.602;23.470;2023-02-22T06:45:30;93403.88;;;8.33;61.56
11053;BME280;55230;42.602;23.470;2023-02-22T06:47:56;93437.53;;;8.93;60.76
11053;BME280;55230;42.602;23.470;2023-02-22T06:50:26;93460.59;;;9.46;59.28
11053;BME280;55230;42.602;23.470;2023-02-22T06:52:54;93510.44;;;9.29;60.02
11053;BME280;55230;42.602;23.470;2023-02-22T06:55:22;93517.47;;;8.33;61.58
11053;BME280;55230;42.602;23.470;2023-02-22T06:57:49;93483.50;;;8.27;61.95
11053;BME280;55230;42.602;23.470;2023-02-22T07:00:19;93523.63;;;9.14;61.58
11053;BME280;55230;42.602;23.470;2023-02-22T07:02:46;93515.88;;;9.16;59.99
11053;BME280;55230;42.602;23.470;2023-02-22T07:05:15;93510.03;;;8.96;60.29
11053;BME280;55230;42.602;23.470;2023-02-22T07:07:42;93405.59;;;8.95;58.30
11053;BME280;55230;42.602;23.470;2023-02-22T07:10:17;93436.44;;;8.69;58.32
11053;BME280;55230;42.602;23.470;2023-02-22T07:12:44;93434.84;;;7.99;58.96
11053;BME280;55230;42.602;23.470;2023-02-22T07:15:11;92993.97;;;5.03;59.64
11053;BME280;55230;42.602;23.470;2023-02-22T07:17:39;93512.63;;;9.43;57.92
11053;BME280;55230;42.602;23.470;2023-02-22T07:20:07;93438.16;;;9.18;56.96
11053;BME280;55230;42.602;23.470;2023-02-22T07:22:35;93396.03;;;9.46;55.28
11053;BME280;55230;42.602;23.470;2023-02-22T07:25:02;93525.72;;;10.36;54.72
11053;BME280;55230;42.602;23.470;2023-02-22T07:27:29;93521.03;;;9.97;54.36
11053;BME280;55230;42.602;23.470;2023-02-22T07:29:56;93524.19;;;9.74;55.58
11053;BME280;55230;42.602;23.470;2023-02-22T07:32:23;93427.59;;;9.24;55.16
11053;BME280;55230;42.602;23.470;2023-02-22T07:34:51;93487.28;;;9.53;54.64
11053;BME280;55230;42.602;23.470;2023-02-22T07:37:18;93518.63;;;9.99;54.28
11053;BME280;55230;42.602;23.470;2023-02-22T07:39:45;93471.00;;;10.18;54.09
11053;BME280;55230;42.602;23.470;2023-02-22T07:42:12;93515.66;;;10.77;52.73
11053;BME280;55230;42.602;23.470;2023-02-22T07:44:39;93505.88;;;10.12;55.28
11053;BME280;55230;42.602;23.470;2023-02-22T07:47:05;93505.34;;;10.26;54.36
11053;BME280;55230;42.602;23.470;2023-02-22T07:49:33;93522.25;;;11.03;53.61
11053;BME280;55230;42.602;23.470;2023-02-22T07:52:01;93504.56;;;10.84;51.40
11053;BME280;55230;42.602;23.470;2023-02-22T07:54:28;93520.63;;;10.96;52.37
11053;BME280;55230;42.602;23.470;2023-02-22T07:56:54;93470.25;;;11.11;50.44
11053;BME280;55230;42.602;23.470;2023-02-22T07:59:21;93219.06;;;9.10;52.10
11053;BME280;55230;42.602;23.470;2023-02-22T08:01:48;93504.16;;;11.12;53.75
11053;BME280;55230;42.602;23.470;2023-02-22T08:04:15;93500.38;;;11.55;51.45
11053;BME280;55230;42.602;23.470;2023-02-22T08:06:42;93522.44;;;11.62;48.62
11053;BME280;55230;42.602;23.470;2023-02-22T08:09:12;93444.03;;;11.12;50.73
11053;BME280;55230;42.602;23.470;2023-02-22T08:11:38;93134.94;;;9.19;51.58
11053;BME280;55230;42.602;23.470;2023-02-22T08:14:06;93421.09;;;10.89;53.05
11053;BME280;55230;42.602;23.470;2023-02-22T08:16:33;93504.91;;;11.40;51.71
11053;BME280;55230;42.602;23.470;2023-02-22T08:18:59;93507.59;;;11.31;52.98
11053;BME280;55230;42.602;23.470;2023-02-22T08:21:26;93509.69;;;11.45;51.48
11053;BME280;55230;42.602;23.470;2023-02-22T08:23:53;93507.91;;;11.33;53.04
11053;BME280;55230;42.602;23.470;2023-02-22T08:26:21;93541.78;;;11.34;54.48
11053;BME280;55230;42.602;23.470;2023-02-22T08:28:49;93446.88;;;10.99;53.04
11053;BME280;55230;42.602;23.470;2023-02-22T08:31:16;93371.81;;;10.43;53.30
11053;BME280;55230;42.602;23.470;2023-02-22T08:33:46;93459.31;;;11.06;52.39
11053;BME280;55230;42.602;23.470;2023-02-22T08:36:13;93466.81;;;11.20;52.44
11053;BME280;55230;42.602;23.470;2023-02-22T08:38:40;93464.66;;;11.69;51.69
11053;BME280;55230;42.602;23.470;2023-02-22T08:41:07;93503.84;;;12.24;49.26
11053;BME280;55230;42.602;23.470;2023-02-22T08:43:35;93522.31;;;12.58;48.90
11053;BME280;55230;42.602;23.470;2023-02-22T08:46:02;93498.88;;;13.12;46.94
11053;BME280;55230;42.602;23.470;2023-02-22T08:48:29;93477.22;;;13.12;45.21
11053;BME280;55230;42.602;23.470;2023-02-22T08:50:55;93355.31;;;11.97;45.09
11053;BME280;55230;42.602;23.470;2023-02-22T08:53:22;93501.03;;;12.99;44.50
11053;BME280;55230;42.602;23.470;2023-02-22T08:55:49;93197.34;;;10.95;44.74
11053;BME280;55230;42.602;23.470;2023-02-22T08:58:16;93402.38;;;12.14;44.87
11053;BME280;55230;42.602;23.470;2023-02-22T09:00:44;93514.44;;;13.02;44.41
11053;BME280;55230;42.602;23.470;2023-02-22T09:03:12;93518.44;;;13.07;44.63
11053;BME280;55230;42.602;23.470;2023-02-22T09:05:40;93545.28;;;12.96;44.67
11053;BME280;55230;42.602;23.470;2023-02-22T09:08:07;93088.88;;;9.89;44.70
11053;BME280;55230;42.602;23.470;2023-02-22T09:10:34;93453.38;;;12.77;45.71
11053;BME280;55230;42.602;23.470;2023-02-22T09:13:01;93509.59;;;13.44;44.18
11053;BME280;55230;42.602;23.470;2023-02-22T09:15:29;93471.25;;;13.22;44.34
11053;BME280;55230;42.602;23.470;2023-02-22T09:17:58;93431.69;;;13.25;42.78
11053;BME280;55230;42.602;23.470;2023-02-22T09:20:25;93443.31;;;13.02;42.82
11053;BME280;55230;42.602;23.470;2023-02-22T09:22:52;93495.91;;;13.24;43.51
11053;BME280;55230;42.602;23.470;2023-02-22T09:25:20;93495.97;;;13.39;42.92
11053;BME280;55230;42.602;23.470;2023-02-22T09:27:47;93053.94;;;10.31;43.31
11053;BME280;55230;42.602;23.470;2023-02-22T09:30:17;93497.03;;;13.18;44.44
11053;BME280;55230;42.602;23.470;2023-02-22T09:32:44;93356.59;;;12.58;42.95
11053;BME280;55230;42.602;23.470;2023-02-22T09:35:13;93436.75;;;13.32;43.04
11053;BME280;55230;42.602;23.470;2023-02-22T09:37:39;93454.13;;;13.40;41.78
11053;BME280;55230;42.602;23.470;2023-02-22T09:40:14;93345.19;;;12.68;42.27
11053;BME280;55230;42.602;23.470;2023-02-22T09:42:55;93418.81;;;13.49;41.76
11053;BME280;55230;42.602;23.470;2023-02-22T09:45:30;93402.56;;;13.63;42.89
11053;BME280;55230;42.602;23.470;2023-02-22T09:48:04;93169.19;;;12.28;40.69
11053;BME280;55230;42.602;23.470;2023-02-22T09:50:36;93474.97;;;14.07;40.80
11053;BME280;55230;42.602;23.470;2023-02-22T09:53:21;93476.72;;;14.24;40.37
11053;BME280;55230;42.602;23.470;2023-02-22T09:55:57;93472.00;;;14.68;41.68
11053;BME280;55230;42.602;23.470;2023-02-22T09:58:30;93469.50;;;14.85;39.73
11053;BME280;55230;42.602;23.470;2023-02-22T10:01:06;93472.59;;;14.58;40.37
11053;BME280;55230;42.602;23.470;2023-02-22T10:03:47;93412.34;;;14.39;40.20
11053;BME280;55230;42.602;23.470;2023-02-22T10:06:19;93458.81;;;15.01;39.18
11053;BME280;55230;42.602;23.470;2023-02-22T10:08:48;93460.47;;;14.93;39.41
11053;BME280;55230;42.602;23.470;2023-02-22T10:11:25;93272.50;;;13.63;40.13
11053;BME280;55230;42.602;23.470;2023-02-22T10:14:06;93378.59;;;14.06;39.56
11053;BME280;55230;42.602;23.470;2023-02-22T10:16:42;93458.69;;;14.21;40.16
11053;BME280;55230;42.602;23.470;2023-02-22T10:19:31;93422.75;;;14.41;39.85
11053;BME280;55230;42.602;23.470;2023-02-22T10:22:17;93437.25;;;14.38;40.47
11053;BME280;55230;42.602;23.470;2023-02-22T10:24:53;93445.97;;;14.62;39.83
11053;BME280;55230;42.602;23.470;2023-02-22T10:27:27;93377.66;;;14.63;39.33
11053;BME280;55230;42.602;23.470;2023-02-22T10:29:59;93386.47;;;14.58;39.52
11053;BME280;55230;42.602;23.470;2023-02-22T10:32:30;93413.06;;;14.94;38.80
11053;BME280;55230;42.602;23.470;2023-02-22T10:34:59;93346.25;;;14.57;39.17
11053;BME280;55230;42.602;23.470;2023-02-22T10:37:33;92949.72;;;11.95;38.62
11053;BME280;55230;42.602;23.470;2023-02-22T10:40:09;93399.94;;;14.87;39.45
11053;BME280;55230;42.602;23.470;2023-02-22T10:42:37;93397.75;;;14.91;39.03
11053;BME280;55230;42.602;23.470;2023-02-22T10:45:05;93274.00;;;14.19;39.03
11053;BME280;55230;42.602;23.470;2023-02-22T10:47:32;93391.72;;;15.28;38.36
11053;BME280;55230;42.602;23.470;2023-02-22T10:50:00;93382.34;;;15.29;37.20
11053;BME280;55230;42.602;23.470;2023-02-22T10:52:31;93387.03;;;15.28;37.17
11053;BME280;55230;42.602;23.470;2023-02-22T10:55:02;93380.22;;;15.64;37.97
11053;BME280;55230;42.602;23.470;2023-02-22T10:57:33;93383.03;;;15.44;37.35
11053;BME280;55230;42.602;23.470;2023-02-22T11:00:14;93379.66;;;15.34;36.79
11053;BME280;55230;42.602;23.470;2023-02-22T11:02:53;93365.16;;;15.37;36.74
11053;BME280;55230;42.602;23.470;2023-02-22T11:05:30;93377.03;;;15.40;36.48
11053;BME280;55230;42.602;23.470;2023-02-22T11:08:15;93304.25;;;14.98;36.74
11053;BME280;55230;42.602;23.470;2023-02-22T11:10:49;93292.88;;;14.68;36.51
11053;BME280;55230;42.602;23.470;2023-02-22T11:13:17;93306.94;;;14.92;35.06
11053;BME280;55230;42.602;23.470;2023-02-22T11:15:44;93325.03;;;15.27;36.21
11053;BME280;55230;42.602;23.470;2023-02-22T11:18:23;93339.00;;;15.40;36.46
11053;BME280;55230;42.602;23.470;2023-02-22T11:21:01;93359.34;;;15.50;36.25
11053;BME280;55230;42.602;23.470;2023-02-22T11:23:31;93316.06;;;15.41;35.17
11053;BME280;55230;42.602;23.470;2023-02-22T11:26:06;93314.16;;;15.52;35.34
11053;BME280;55230;42.602;23.470;2023-02-22T11:28:35;93344.66;;;15.98;35.45
11053;BME280;55230;42.602;23.470;2023-02-22T11:31:12;93312.22;;;15.58;35.34
11053;BME280;55230;42.602;23.470;2023-02-22T11:33:47;93333.75;;;15.62;35.20
11053;BME280;55230;42.602;23.470;2023-02-22T11:36:30;93338.91;;;15.54;35.42
11053;BME280;55230;42.602;23.470;2023-02-22T11:38:58;93232.94;;;14.97;33.81
11053;BME280;55230;42.602;23.470;2023-02-22T11:41:33;93340.22;;;15.64;34.26
11053;BME280;55230;42.602;23.470;2023-02-22T11:44:19;93299.16;;;15.05;34.26
11053;BME280;55230;42.602;23.470;2023-02-22T11:46:48;93334.88;;;15.50;35.04
11053;BME280;55230;42.602;23.470;2023-02-22T11:49:15;93332.16;;;15.75;34.48
11053;BME280;55230;42.602;23.470;2023-02-22T11:51:49;93322.44;;;15.69;34.41
11053;BME280;55230;42.602;23.470;2023-02-22T11:54:32;93235.00;;;15.39;32.77
11053;BME280;55230;42.602;23.470;2023-02-22T11:57:14;93235.75;;;15.40;34.30
11053;BME280;55230;42.602;23.470;2023-02-22T11:59:56;93318.75;;;16.03;33.91
11053;BME280;55230;42.602;23.470;2023-02-22T12:02:35;93320.78;;;16.19;34.60
11053;BME280;55230;42.602;23.470;2023-02-22T12:05:21;93316.69;;;15.98;35.19
11053;BME280;55230;42.602;23.470;2023-02-22T12:08:00;93261.47;;;15.81;36.21
11053;BME280;55230;42.602;23.470;2023-02-22T12:10:46;93307.88;;;16.08;35.75
11053;BME280;55230;42.602;23.470;2023-02-22T12:13:28;93310.91;;;16.16;35.55
11053;BME280;55230;42.602;23.470;2023-02-22T12:16:03;93311.34;;;16.09;35.03
11053;BME280;55230;42.602;23.470;2023-02-22T12:18:35;93309.47;;;16.26;35.77
11053;BME280;55230;42.602;23.470;2023-02-22T12:21:07;93259.06;;;15.88;34.88
11053;BME280;55230;42.602;23.470;2023-02-22T12:23:41;93203.72;;;15.49;35.85
11053;BME280;55230;42.602;23.470;2023-02-22T12:26:14;93212.22;;;15.68;35.29
11053;BME280;55230;42.602;23.470;2023-02-22T12:28:46;93298.38;;;16.35;35.45
11053;BME280;55230;42.602;23.470;2023-02-22T12:31:20;93286.84;;;16.51;35.62
11053;BME280;55230;42.602;23.470;2023-02-22T12:33:56;93115.25;;;15.43;34.94
11053;BME280;55230;42.602;23.470;2023-02-22T12:36:31;93323.69;;;16.47;35.44
11053;BME280;55230;42.602;23.470;2023-02-22T12:39:02;93287.56;;;16.46;35.71
11053;BME280;55230;42.602;23.470;2023-02-22T12:41:36;93280.94;;;16.58;35.17
11053;BME280;55230;42.602;23.470;2023-02-22T12:44:08;93278.09;;;16.31;35.94
11053;BME280;55230;42.602;23.470;2023-02-22T12:46:40;93320.88;;;16.30;35.39
11053;BME280;55230;42.602;23.470;2023-02-22T12:49:14;93281.94;;;16.13;35.42
11053;BME280;55230;42.602;23.470;2023-02-22T12:51:47;93272.50;;;16.08;35.68
11053;BME280;55230;42.602;23.470;2023-02-22T12:54:20;93115.06;;;14.78;35.70
11053;BME280;55230;42.602;23.470;2023-02-22T12:56:54;93279.16;;;16.02;35.67
11053;BME280;55230;42.602;23.470;2023-02-22T12:59:27;93258.53;;;16.32;36.21
11053;BME280;55230;42.602;23.470;2023-02-22T13:01:58;93259.56;;;16.40;35.25
11053;BME280;55230;42.602;23.470;2023-02-22T13:04:26;93188.19;;;16.03;35.50
11053;BME280;55230;42.602;23.470;2023-02-22T13:07:15;93188.28;;;15.72;34.70
11053;BME280;55230;42.602;23.470;2023-02-22T13:09:55;93155.28;;;15.48;35.98
11053;BME280;55230;42.602;23.470;2023-02-22T13:12:33;93271.91;;;16.41;34.76
11053;BME280;55230;42.602;23.470;2023-02-22T13:15:08;93256.75;;;16.18;35.29
11053;BME280;55230;42.602;23.470;2023-02-22T13:17:45;93259.50;;;16.29;35.56